sensor_id;sensor_type;location;lat;lon;timestamp;P1;durP1;ratioP1;P2;durP2;ratioP2
13090;SDS011;6611;52.604;13.438;2024-03-07T00:03:19;71.57;;;27.93;;
13090;SDS011;6611;52.604;13.438;2024-03-07T00:08:21;70.17;;;28.90;;
13090;SDS011;6611;52.604;13.438;2024-03-07T00:13:25;65.50;;;27.27;;
13090;SDS011;6611;52.604;13.438;2024-03-07T00:18:27;75.43;;;28.17;;
13090;SDS011;6611;52.604;13.438;2024-03-07T00:23:30;75.13;;;27.47;;
13090;SDS011;6611;52.604;13.438;2024-03-07T00:28:33;75.27;;;27.37;;
13090;SDS011;6611;52.604;13.438;2024-03-07T00:33:41;67.83;;;28.17;;
13090;SDS011;6611;52.604;13.438;2024-03-07T00:38:42;72.57;;;26.30;;
13090;SDS011;6611;52.604;13.438;2024-03-07T00:43:46;64.30;;;26.03;;
13090;SDS011;6611;52.604;13.438;2024-03-07T00:48:48;66.67;;;27.83;;
13090;SDS011;6611;52.604;13.438;2024-03-07T00:53:49;71.43;;;27.20;;
13090;SDS011;6611;52.604;13.438;2024-03-07T00:58:52;72.20;;;28.10;;
13090;SDS011;6611;52.604;13.438;2024-03-07T01:03:54;61.37;;;27.77;;
13090;SDS011;6611;52.604;13.438;2024-03-07T01:08:56;71.17;;;29.93;;
13090;SDS011;6611;52.604;13.438;2024-03-07T01:13:59;57.90;;;27.87;;
13090;SDS011;6611;52.604;13.438;2024-03-07T01:19:01;65.87;;;28.37;;
13090;SDS011;6611;52.604;13.438;2024-03-07T01:24:03;67.37;;;28.83;;
13090;SDS011;6611;52.604;13.438;2024-03-07T01:29:07;63.60;;;27.77;;
13090;SDS011;6611;52.604;13.438;2024-03-07T01:34:09;65.10;;;27.90;;
13090;SDS011;6611;52.604;13.438;2024-03-07T01:39:10;65.97;;;28.70;;
13090;SDS011;6611;52.604;13.438;2024-03-07T01:44:14;65.33;;;29.87;;
13090;SDS011;6611;52.604;13.438;2024-03-07T01:49:16;62.13;;;27.90;;
13090;SDS011;6611;52.604;13.438;2024-03-07T01:54:17;73.07;;;29.10;;
13090;SDS011;6611;52.604;13.438;2024-03-07T01:59:20;64.43;;;28.90;;
13090;SDS011;6611;52.604;13.438;2024-03-07T02:04:24;69.03;;;28.93;;
13090;SDS011;6611;52.604;13.438;2024-03-07T02:09:25;62.60;;;26.20;;
13090;SDS011;6611;52.604;13.438;2024-03-07T02:14:28;57.93;;;28.97;;
13090;SDS011;6611;52.604;13.438;2024-03-07T02:19:30;58.07;;;26.60;;
13090;SDS011;6611;52.604;13.438;2024-03-07T02:24:34;58.77;;;27.17;;
13090;SDS011;6611;52.604;13.438;2024-03-07T02:29:36;60.33;;;25.30;;
13090;SDS011;6611;52.604;13.438;2024-03-07T02:34:38;55.20;;;25.00;;
13090;SDS011;6611;52.604;13.438;2024-03-07T02:39:44;55.00;;;25.40;;
13090;SDS011;6611;52.604;13.438;2024-03-07T02:44:46;58.87;;;26.30;;
13090;SDS011;6611;52.604;13.438;2024-03-07T02:49:48;64.57;;;27.00;;
13090;SDS011;6611;52.604;13.438;2024-03-07T02:54:51;55.77;;;27.13;;
13090;SDS011;6611;52.604;13.438;2024-03-07T02:59:52;59.27;;;26.20;;
13090;SDS011;6611;52.604;13.438;2024-03-07T03:04:54;60.00;;;27.87;;
13090;SDS011;6611;52.604;13.438;2024-03-07T03:09:57;62.93;;;28.50;;
13090;SDS011;6611;52.604;13.438;2024-03-07T03:14:59;58.40;;;26.93;;
13090;SDS011;6611;52.604;13.438;2024-03-07T03:20:00;64.23;;;28.70;;
13090;SDS011;6611;52.604;13.438;2024-03-07T03:25:05;58.60;;;26.70;;
13090;SDS011;6611;52.604;13.438;2024-03-07T03:30:09;56.60;;;28.40;;
13090;SDS011;6611;52.604;13.438;2024-03-07T03:35:14;60.27;;;28.63;;
13090;SDS011;6611;52.604;13.438;2024-03-07T03:40:17;58.70;;;28.13;;
13090;SDS011;6611;52.604;13.438;2024-03-07T03:45:19;63.60;;;29.43;;
13090;SDS011;6611;52.604;13.438;2024-03-07T03:50:21;67.30;;;29.50;;
13090;SDS011;6611;52.604;13.438;2024-03-07T03:55:25;62.93;;;28.93;;
13090;SDS011;6611;52.604;13.438;2024-03-07T04:00:27;60.47;;;28.90;;
13090;SDS011;6611;52.604;13.438;2024-03-07T04:05:28;62.17;;;30.07;;
13090;SDS011;6611;52.604;13.438;2024-03-07T04:10:31;56.17;;;27.60;;
13090;SDS011;6611;52.604;13.438;2024-03-07T04:15:33;57.23;;;30.10;;
13090;SDS011;6611;52.604;13.438;2024-03-07T04:20:35;46.93;;;25.97;;
13090;SDS011;6611;52.604;13.438;2024-03-07T04:25:38;52.60;;;26.83;;
13090;SDS011;6611;52.604;13.438;2024-03-07T04:30:39;49.13;;;25.60;;
13090;SDS011;6611;52.604;13.438;2024-03-07T04:35:42;44.33;;;25.93;;
13090;SDS011;6611;52.604;13.438;2024-03-07T04:40:48;46.80;;;24.63;;
13090;SDS011;6611;52.604;13.438;2024-03-07T04:45:50;49.87;;;25.93;;
13090;SDS011;6611;52.604;13.438;2024-03-07T04:50:52;51.43;;;26.03;;
13090;SDS011;6611;52.604;13.438;2024-03-07T04:55:55;39.63;;;22.30;;
13090;SDS011;6611;52.604;13.438;2024-03-07T05:00:57;39.93;;;23.70;;
13090;SDS011;6611;52.604;13.438;2024-03-07T05:05:58;44.20;;;23.83;;
13090;SDS011;6611;52.604;13.438;2024-03-07T05:11:02;41.97;;;22.80;;
13090;SDS011;6611;52.604;13.438;2024-03-07T05:16:04;42.77;;;22.60;;
13090;SDS011;6611;52.604;13.438;2024-03-07T05:21:06;39.37;;;20.83;;
13090;SDS011;6611;52.604;13.438;2024-03-07T05:26:23;38.60;;;20.77;;
13090;SDS011;6611;52.604;13.438;2024-03-07T05:31:26;37.83;;;21.47;;
13090;SDS011;6611;52.604;13.438;2024-03-07T05:36:28;38.67;;;20.93;;
13090;SDS011;6611;52.604;13.438;2024-03-07T05:41:32;39.10;;;21.07;;
13090;SDS011;6611;52.604;13.438;2024-03-07T05:46:34;40.33;;;23.03;;
13090;SDS011;6611;52.604;13.438;2024-03-07T05:51:41;48.90;;;24.20;;
13090;SDS011;6611;52.604;13.438;2024-03-07T05:56:46;45.00;;;23.67;;
13090;SDS011;6611;52.604;13.438;2024-03-07T06:01:48;43.30;;;23.43;;
13090;SDS011;6611;52.604;13.438;2024-03-07T06:06:51;40.53;;;22.43;;
13090;SDS011;6611;52.604;13.438;2024-03-07T06:11:54;43.70;;;22.27;;
13090;SDS011;6611;52.604;13.438;2024-03-07T06:16:56;38.13;;;21.53;;
13090;SDS011;6611;52.604;13.438;2024-03-07T06:21:58;38.60;;;22.00;;
13090;SDS011;6611;52.604;13.438;2024-03-07T06:27:02;37.83;;;20.20;;
13090;SDS011;6611;52.604;13.438;2024-03-07T06:32:09;50.53;;;25.10;;
13090;SDS011;6611;52.604;13.438;2024-03-07T06:37:11;44.97;;;23.37;;
13090;SDS011;6611;52.604;13.438;2024-03-07T06:42:14;44.23;;;22.27;;
13090;SDS011;6611;52.604;13.438;2024-03-07T06:47:16;41.33;;;23.63;;
13090;SDS011;6611;52.604;13.438;2024-03-07T06:52:18;37.27;;;21.87;;
13090;SDS011;6611;52.604;13.438;2024-03-07T06:57:22;40.03;;;21.63;;
13090;SDS011;6611;52.604;13.438;2024-03-07T07:02:24;39.57;;;22.57;;
13090;SDS011;6611;52.604;13.438;2024-03-07T07:07:27;40.23;;;21.40;;
13090;SDS011;6611;52.604;13.438;2024-03-07T07:12:30;39.13;;;21.77;;
13090;SDS011;6611;52.604;13.438;2024-03-07T07:17:32;40.23;;;20.93;;
13090;SDS011;6611;52.604;13.438;2024-03-07T07:22:34;35.77;;;19.13;;
13090;SDS011;6611;52.604;13.438;2024-03-07T07:27:37;33.17;;;18.43;;
13090;SDS011;6611;52.604;13.438;2024-03-07T07:32:38;30.67;;;18.33;;
13090;SDS011;6611;52.604;13.438;2024-03-07T07:37:42;27.20;;;16.07;;
13090;SDS011;6611;52.604;13.438;2024-03-07T07:42:45;25.00;;;15.33;;
13090;SDS011;6611;52.604;13.438;2024-03-07T07:47:48;23.23;;;13.90;;
13090;SDS011;6611;52.604;13.438;2024-03-07T07:52:51;19.40;;;13.13;;
13090;SDS011;6611;52.604;13.438;2024-03-07T07:57:56;19.57;;;12.43;;
13090;SDS011;6611;52.604;13.438;2024-03-07T08:02:59;22.23;;;12.37;;
13090;SDS011;6611;52.604;13.438;2024-03-07T08:08:03;21.60;;;12.30;;
13090;SDS011;6611;52.604;13.438;2024-03-07T08:13:07;17.93;;;11.77;;
13090;SDS011;6611;52.604;13.438;2024-03-07T08:18:10;18.47;;;11.97;;
13090;SDS011;6611;52.604;13.438;2024-03-07T08:23:12;18.87;;;10.97;;
13090;SDS011;6611;52.604;13.438;2024-03-07T08:28:15;16.33;;;10.87;;
13090;SDS011;6611;52.604;13.438;2024-03-07T08:33:17;16.87;;;12.00;;
13090;SDS011;6611;52.604;13.438;2024-03-07T08:38:21;17.13;;;11.93;;
13090;SDS011;6611;52.604;13.438;2024-03-07T08:43:24;16.90;;;11.07;;
13090;SDS011;6611;52.604;13.438;2024-03-07T08:48:27;19.67;;;11.23;;
13090;SDS011;6611;52.604;13.438;2024-03-07T08:53:29;16.60;;;11.67;;
13090;SDS011;6611;52.604;13.438;2024-03-07T08:58:32;16.97;;;10.80;;
13090;SDS011;6611;52.604;13.438;2024-03-07T09:03:34;13.60;;;9.80;;
13090;SDS011;6611;52.604;13.438;2024-03-07T09:08:35;17.00;;;10.20;;
13090;SDS011;6611;52.604;13.438;2024-03-07T09:13:38;14.10;;;9.77;;
13090;SDS011;6611;52.604;13.438;2024-03-07T09:18:40;13.60;;;9.50;;
13090;SDS011;6611;52.604;13.438;2024-03-07T09:23:42;13.63;;;9.57;;
13090;SDS011;6611;52.604;13.438;2024-03-07T09:28:45;14.53;;;10.30;;
13090;SDS011;6611;52.604;13.438;2024-03-07T09:33:47;14.63;;;9.40;;
13090;SDS011;6611;52.604;13.438;2024-03-07T09:38:49;13.63;;;9.97;;
13090;SDS011;6611;52.604;13.438;2024-03-07T09:43:52;14.77;;;9.53;;
13090;SDS011;6611;52.604;13.438;2024-03-07T09:48:57;12.20;;;9.00;;
13090;SDS011;6611;52.604;13.438;2024-03-07T09:53:59;14.03;;;9.87;;
13090;SDS011;6611;52.604;13.438;2024-03-07T09:59:03;12.13;;;8.30;;
13090;SDS011;6611;52.604;13.438;2024-03-07T10:04:05;14.63;;;9.13;;
13090;SDS011;6611;52.604;13.438;2024-03-07T10:09:12;13.50;;;8.47;;
13090;SDS011;6611;52.604;13.438;2024-03-07T10:14:16;13.53;;;8.20;;
13090;SDS011;6611;52.604;13.438;2024-03-07T10:19:18;13.13;;;8.13;;
13090;SDS011;6611;52.604;13.438;2024-03-07T10:24:20;9.43;;;6.90;;
13090;SDS011;6611;52.604;13.438;2024-03-07T10:29:27;12.70;;;7.80;;
13090;SDS011;6611;52.604;13.438;2024-03-07T10:34:31;10.93;;;7.23;;
13090;SDS011;6611;52.604;13.438;2024-03-07T10:39:34;10.63;;;7.03;;
13090;SDS011;6611;52.604;13.438;2024-03-07T10:44:38;10.30;;;7.73;;
13090;SDS011;6611;52.604;13.438;2024-03-07T10:49:43;12.20;;;7.57;;
13090;SDS011;6611;52.604;13.438;2024-03-07T10:54:57;11.47;;;6.90;;
13090;SDS011;6611;52.604;13.438;2024-03-07T11:00:11;10.87;;;7.60;;
13090;SDS011;6611;52.604;13.438;2024-03-07T11:05:30;10.20;;;7.30;;
13090;SDS011;6611;52.604;13.438;2024-03-07T11:10:32;11.40;;;7.07;;
13090;SDS011;6611;52.604;13.438;2024-03-07T11:15:36;10.67;;;7.10;;
13090;SDS011;6611;52.604;13.438;2024-03-07T11:20:39;10.00;;;7.07;;
13090;SDS011;6611;52.604;13.438;2024-03-07T11:25:44;10.50;;;7.50;;
13090;SDS011;6611;52.604;13.438;2024-03-07T11:30:47;10.70;;;7.57;;
13090;SDS011;6611;52.604;13.438;2024-03-07T11:35:49;10.10;;;7.23;;
13090;SDS011;6611;52.604;13.438;2024-03-07T11:40:51;11.73;;;8.10;;
13090;SDS011;6611;52.604;13.438;2024-03-07T11:45:54;13.80;;;7.27;;
13090;SDS011;6611;52.604;13.438;2024-03-07T11:50:57;10.13;;;7.17;;
13090;SDS011;6611;52.604;13.438;2024-03-07T11:56:01;11.50;;;8.50;;
13090;SDS011;6611;52.604;13.438;2024-03-07T12:01:11;11.37;;;7.50;;
13090;SDS011;6611;52.604;13.438;2024-03-07T12:06:13;11.53;;;8.37;;
13090;SDS011;6611;52.604;13.438;2024-03-07T12:11:17;11.97;;;7.90;;
13090;SDS011;6611;52.604;13.438;2024-03-07T12:16:20;12.17;;;8.27;;
13090;SDS011;6611;52.604;13.438;2024-03-07T12:21:22;10.23;;;7.80;;
13090;SDS011;6611;52.604;13.438;2024-03-07T12:26:23;12.43;;;8.20;;
13090;SDS011;6611;52.604;13.438;2024-03-07T12:31:27;11.50;;;8.23;;
13090;SDS011;6611;52.604;13.438;2024-03-07T12:36:31;13.17;;;8.67;;
13090;SDS011;6611;52.604;13.438;2024-03-07T12:41:45;11.40;;;8.80;;
13090;SDS011;6611;52.604;13.438;2024-03-07T12:46:50;13.40;;;8.70;;
13090;SDS011;6611;52.604;13.438;2024-03-07T12:51:55;13.10;;;9.73;;
13090;SDS011;6611;52.604;13.438;2024-03-07T12:56:57;13.03;;;9.20;;
13090;SDS011;6611;52.604;13.438;2024-03-07T13:02:00;12.03;;;8.87;;
13090;SDS011;6611;52.604;13.438;2024-03-07T13:07:03;13.00;;;9.33;;
13090;SDS011;6611;52.604;13.438;2024-03-07T13:12:05;13.93;;;9.67;;
13090;SDS011;6611;52.604;13.438;2024-03-07T13:17:12;13.03;;;9.60;;
13090;SDS011;6611;52.604;13.438;2024-03-07T13:22:14;15.27;;;9.17;;
13090;SDS011;6611;52.604;13.438;2024-03-07T13:27:15;14.77;;;9.97;;
13090;SDS011;6611;52.604;13.438;2024-03-07T13:32:20;13.73;;;8.83;;
13090;SDS011;6611;52.604;13.438;2024-03-07T13:37:22;16.13;;;9.73;;
13090;SDS011;6611;52.604;13.438;2024-03-07T13:42:23;12.40;;;8.43;;
13090;SDS011;6611;52.604;13.438;2024-03-07T13:47:26;11.03;;;8.30;;
13090;SDS011;6611;52.604;13.438;2024-03-07T13:52:28;14.53;;;9.20;;
13090;SDS011;6611;52.604;13.438;2024-03-07T13:57:35;15.53;;;10.10;;
13090;SDS011;6611;52.604;13.438;2024-03-07T14:08:45;13.80;;;8.67;;
13090;SDS011;6611;52.604;13.438;2024-03-07T14:14:03;13.30;;;9.43;;
13090;SDS011;6611;52.604;13.438;2024-03-07T14:30:36;13.20;;;8.37;;
13090;SDS011;6611;52.604;13.438;2024-03-07T14:36:00;13.13;;;8.90;;
13090;SDS011;6611;52.604;13.438;2024-03-07T14:41:06;10.87;;;7.80;;
13090;SDS011;6611;52.604;13.438;2024-03-07T14:46:13;11.50;;;8.57;;
13090;SDS011;6611;52.604;13.438;2024-03-07T14:51:16;10.50;;;7.80;;
13090;SDS011;6611;52.604;13.438;2024-03-07T14:56:19;12.83;;;8.43;;
13090;SDS011;6611;52.604;13.438;2024-03-07T15:01:21;14.07;;;9.40;;
13090;SDS011;6611;52.604;13.438;2024-03-07T15:06:26;15.20;;;8.67;;
13090;SDS011;6611;52.604;13.438;2024-03-07T15:11:34;13.53;;;9.00;;
13090;SDS011;6611;52.604;13.438;2024-03-07T15:16:36;12.53;;;8.47;;
13090;SDS011;6611;52.604;13.438;2024-03-07T15:21:38;13.60;;;8.23;;
13090;SDS011;6611;52.604;13.438;2024-03-07T15:26:42;11.70;;;8.77;;
13090;SDS011;6611;52.604;13.438;2024-03-07T15:31:45;13.27;;;8.97;;
13090;SDS011;6611;52.604;13.438;2024-03-07T15:36:46;12.00;;;8.90;;
13090;SDS011;6611;52.604;13.438;2024-03-07T15:42:02;13.27;;;8.10;;
13090;SDS011;6611;52.604;13.438;2024-03-07T15:47:05;14.17;;;8.20;;
13090;SDS011;6611;52.604;13.438;2024-03-07T15:52:07;14.33;;;9.07;;
13090;SDS011;6611;52.604;13.438;2024-03-07T15:57:14;12.70;;;8.50;;
13090;SDS011;6611;52.604;13.438;2024-03-07T16:02:16;10.53;;;7.87;;
13090;SDS011;6611;52.604;13.438;2024-03-07T16:07:18;13.50;;;8.90;;
13090;SDS011;6611;52.604;13.438;2024-03-07T16:12:21;13.50;;;8.93;;
13090;SDS011;6611;52.604;13.438;2024-03-07T16:17:22;12.87;;;8.80;;
13090;SDS011;6611;52.604;13.438;2024-03-07T16:22:24;13.80;;;9.00;;
13090;SDS011;6611;52.604;13.438;2024-03-07T16:27:29;11.17;;;8.10;;
13090;SDS011;6611;52.604;13.438;2024-03-07T16:32:31;12.47;;;8.67;;
13090;SDS011;6611;52.604;13.438;2024-03-07T16:37:34;16.80;;;8.93;;
13090;SDS011;6611;52.604;13.438;2024-03-07T16:42:42;12.80;;;8.40;;
13090;SDS011;6611;52.604;13.438;2024-03-07T16:47:51;15.80;;;9.73;;
13090;SDS011;6611;52.604;13.438;2024-03-07T16:52:54;12.00;;;8.70;;
13090;SDS011;6611;52.604;13.438;2024-03-07T16:57:57;13.47;;;9.30;;
13090;SDS011;6611;52.604;13.438;2024-03-07T17:03:01;12.70;;;8.73;;
13090;SDS011;6611;52.604;13.438;2024-03-07T17:08:04;12.43;;;8.70;;
13090;SDS011;6611;52.604;13.438;2024-03-07T17:13:08;14.13;;;9.33;;
13090;SDS011;6611;52.604;13.438;2024-03-07T17:18:10;13.77;;;9.07;;
13090;SDS011;6611;52.604;13.438;2024-03-07T17:23:14;18.33;;;9.57;;
13090;SDS011;6611;52.604;13.438;2024-03-07T17:28:18;13.53;;;9.47;;
13090;SDS011;6611;52.604;13.438;2024-03-07T17:33:20;14.73;;;9.60;;
13090;SDS011;6611;52.604;13.438;2024-03-07T17:38:24;18.40;;;10.30;;
13090;SDS011;6611;52.604;13.438;2024-03-07T17:43:28;15.13;;;10.47;;
13090;SDS011;6611;52.604;13.438;2024-03-07T17:48:30;16.27;;;10.03;;
13090;SDS011;6611;52.604;13.438;2024-03-07T17:53:33;21.87;;;11.20;;
13090;SDS011;6611;52.604;13.438;2024-03-07T17:58:36;16.10;;;10.63;;
13090;SDS011;6611;52.604;13.438;2024-03-07T18:03:38;15.73;;;10.23;;
13090;SDS011;6611;52.604;13.438;2024-03-07T18:08:39;15.23;;;10.20;;
13090;SDS011;6611;52.604;13.438;2024-03-07T18:13:42;16.87;;;10.40;;
13090;SDS011;6611;52.604;13.438;2024-03-07T18:18:44;26.70;;;17.70;;
13090;SDS011;6611;52.604;13.438;2024-03-07T18:23:49;26.33;;;15.77;;
13090;SDS011;6611;52.604;13.438;2024-03-07T18:28:52;21.37;;;13.63;;
13090;SDS011;6611;52.604;13.438;2024-03-07T18:33:53;16.70;;;12.37;;
13090;SDS011;6611;52.604;13.438;2024-03-07T18:38:55;21.20;;;13.37;;
13090;SDS011;6611;52.604;13.438;2024-03-07T18:43:58;16.30;;;11.83;;
13090;SDS011;6611;52.604;13.438;2024-03-07T18:49:04;17.93;;;12.03;;
13090;SDS011;6611;52.604;13.438;2024-03-07T18:54:13;18.07;;;11.70;;
13090;SDS011;6611;52.604;13.438;2024-03-07T18:59:16;20.67;;;13.93;;
13090;SDS011;6611;52.604;13.438;2024-03-07T19:04:19;23.20;;;14.50;;
13090;SDS011;6611;52.604;13.438;2024-03-07T19:09:21;20.47;;;13.30;;
13090;SDS011;6611;52.604;13.438;2024-03-07T19:14:25;21.50;;;13.00;;
13090;SDS011;6611;52.604;13.438;2024-03-07T19:19:26;18.70;;;12.80;;
13090;SDS011;6611;52.604;13.438;2024-03-07T19:24:30;16.63;;;12.53;;
13090;SDS011;6611;52.604;13.438;2024-03-07T19:29:32;19.40;;;12.57;;
13090;SDS011;6611;52.604;13.438;2024-03-07T19:34:34;19.10;;;12.63;;
13090;SDS011;6611;52.604;13.438;2024-03-07T19:39:36;22.87;;;13.60;;
13090;SDS011;6611;52.604;13.438;2024-03-07T19:44:39;19.60;;;12.23;;
13090;SDS011;6611;52.604;13.438;2024-03-07T19:49:44;20.07;;;13.00;;
13090;SDS011;6611;52.604;13.438;2024-03-07T19:54:46;23.57;;;14.07;;
13090;SDS011;6611;52.604;13.438;2024-03-07T19:59:49;24.20;;;13.77;;
13090;SDS011;6611;52.604;13.438;2024-03-07T20:04:53;21.23;;;12.63;;
13090;SDS011;6611;52.604;13.438;2024-03-07T20:09:58;22.73;;;12.30;;
13090;SDS011;6611;52.604;13.438;2024-03-07T20:15:01;18.57;;;11.93;;
13090;SDS011;6611;52.604;13.438;2024-03-07T20:20:03;18.83;;;11.23;;
13090;SDS011;6611;52.604;13.438;2024-03-07T20:25:14;18.40;;;12.13;;
13090;SDS011;6611;52.604;13.438;2024-03-07T20:30:18;17.10;;;10.97;;
13090;SDS011;6611;52.604;13.438;2024-03-07T20:35:21;18.33;;;12.00;;
13090;SDS011;6611;52.604;13.438;2024-03-07T20:40:22;21.93;;;12.60;;
13090;SDS011;6611;52.604;13.438;2024-03-07T20:45:26;19.33;;;12.13;;
13090;SDS011;6611;52.604;13.438;2024-03-07T20:50:28;17.97;;;10.93;;
13090;SDS011;6611;52.604;13.438;2024-03-07T20:55:32;19.47;;;11.70;;
13090;SDS011;6611;52.604;13.438;2024-03-07T21:00:35;24.33;;;13.37;;
13090;SDS011;6611;52.604;13.438;2024-03-07T21:05:38;19.60;;;12.73;;
13090;SDS011;6611;52.604;13.438;2024-03-07T21:10:42;21.17;;;12.00;;
13090;SDS011;6611;52.604;13.438;2024-03-07T21:15:46;30.27;;;18.97;;
13090;SDS011;6611;52.604;13.438;2024-03-07T21:20:47;73.27;;;30.53;;
13090;SDS011;6611;52.604;13.438;2024-03-07T21:25:49;96.13;;;40.90;;
13090;SDS011;6611;52.604;13.438;2024-03-07T21:30:53;85.77;;;38.27;;
13090;SDS011;6611;52.604;13.438;2024-03-07T21:35:56;75.83;;;36.33;;
13090;SDS011;6611;52.604;13.438;2024-03-07T21:40:58;37.83;;;19.13;;
13090;SDS011;6611;52.604;13.438;2024-03-07T21:46:01;35.97;;;19.53;;
13090;SDS011;6611;52.604;13.438;2024-03-07T21:51:05;31.43;;;16.80;;
13090;SDS011;6611;52.604;13.438;2024-03-07T21:56:13;20.47;;;12.33;;
13090;SDS011;6611;52.604;13.438;2024-03-07T22:01:16;22.33;;;13.07;;
13090;SDS011;6611;52.604;13.438;2024-03-07T22:06:19;23.17;;;14.27;;
13090;SDS011;6611;52.604;13.438;2024-03-07T22:11:20;24.83;;;13.33;;
13090;SDS011;6611;52.604;13.438;2024-03-07T22:16:24;19.60;;;12.80;;
13090;SDS011;6611;52.604;13.438;2024-03-07T22:21:27;24.57;;;14.77;;
13090;SDS011;6611;52.604;13.438;2024-03-07T22:26:29;32.67;;;19.53;;
13090;SDS011;6611;52.604;13.438;2024-03-07T22:31:35;27.73;;;17.03;;
13090;SDS011;6611;52.604;13.438;2024-03-07T22:36:42;28.03;;;16.40;;
13090;SDS011;6611;52.604;13.438;2024-03-07T22:41:44;27.17;;;16.97;;
13090;SDS011;6611;52.604;13.438;2024-03-07T22:46:48;26.53;;;14.67;;
13090;SDS011;6611;52.604;13.438;2024-03-07T22:51:49;22.07;;;12.73;;
13090;SDS011;6611;52.604;13.438;2024-03-07T22:56:51;21.80;;;13.63;;
13090;SDS011;6611;52.604;13.438;2024-03-07T23:01:54;20.73;;;12.33;;
13090;SDS011;6611;52.604;13.438;2024-03-07T23:06:57;24.80;;;14.57;;
13090;SDS011;6611;52.604;13.438;2024-03-07T23:11:58;23.60;;;13.77;;
13090;SDS011;6611;52.604;13.438;2024-03-07T23:17:01;22.77;;;13.13;;
13090;SDS011;6611;52.604;13.438;2024-03-07T23:22:04;21.50;;;13.03;;
13090;SDS011;6611;52.604;13.438;2024-03-07T23:27:07;18.87;;;11.90;;
13090;SDS011;6611;52.604;13.438;2024-03-07T23:32:11;24.97;;;13.73;;
13090;SDS011;6611;52.604;13.438;2024-03-07T23:37:12;22.53;;;13.83;;
13090;SDS011;6611;52.604;13.438;2024-03-07T23:42:14;28.03;;;16.30;;
13090;SDS011;6611;52.604;13.438;2024-03-07T23:47:17;26.43;;;15.70;;
13090;SDS011;6611;52.604;13.438;2024-03-07T23:52:19;27.30;;;16.30;;
13090;SDS011;6611;52.604;13.438;2024-03-07T23:57:21;32.00;;;16.90;;
